Time;durP1;ratioP1;P1;durP2;ratioP2;P2;SDS_P1;SDS_P2;PMS_P1;PMS_P2;Temp;Humidity;BMP_temperature;BMP_pressure;BME280_temperature;BME280_humidity;BME280_pressure;Samples;Min_cycle;Max_cycle;Signal;HPM_P1;HPM_P2
2022/10/18 00:02:18;;;;;;;20.63;10.20;;;;;;;;;;5016090;28;20135;-65
2022/10/18 00:04:45;;;;;;;24.52;10.00;;;;;;;;;;5033366;28;20057;-66
2022/10/18 00:07:11;;;;;;;18.10;9.32;;;;;;;;;;5016060;28;20053;-66
2022/10/18 00:09:38;;;;;;;24.23;9.73;;;;;;;;;;5015245;28;20052;-65
2022/10/18 00:12:04;;;;;;;24.75;9.80;;;;;;;;;;5015573;28;20048;-66
2022/10/18 00:14:30;;;;;;;24.05;9.68;;;;;;;;;;4999519;28;20519;-66
2022/10/18 00:16:56;;;;;;;23.70;10.23;;;;;;;;;;5015921;28;20056;-66
2022/10/18 00:19:22;;;;;;;21.45;9.70;;;;;;;;;;5033224;28;20068;-66
2022/10/18 00:21:50;;;;;;;20.55;9.40;;;;;;;;;;5033165;28;20045;-65
2022/10/18 00:24:16;;;;;;;23.63;9.35;;;;;;;;;;5033432;28;20096;-66
2022/10/18 00:26:42;;;;;;;19.25;9.88;;;;;;;;;;5015439;28;20046;-66
2022/10/18 00:29:12;;;;;;;22.35;9.38;;;;;;;;;;5032715;28;20102;-65
2022/10/18 00:31:38;;;;;;;19.35;8.98;;;;;;;;;;5015234;28;20052;-66
2022/10/18 00:34:06;;;;;;;18.27;9.00;;;;;;;;;;5032991;28;20539;-66
2022/10/18 00:36:33;;;;;;;19.67;8.88;;;;;;;;;;5015515;28;20102;-66
2022/10/18 00:38:59;;;;;;;18.30;10.02;;;;;;;;;;5033182;28;20033;-66
2022/10/18 00:41:27;;;;;;;17.00;8.23;;;;;;;;;;5015272;28;20041;-65
2022/10/18 00:43:53;;;;;;;18.20;8.80;;;;;;;;;;5033139;28;20135;-66
2022/10/18 00:46:19;;;;;;;14.85;8.23;;;;;;;;;;5032453;28;20494;-66
2022/10/18 00:48:45;;;;;;;21.02;9.20;;;;;;;;;;5015693;28;20049;-66
2022/10/18 00:51:11;;;;;;;19.73;8.98;;;;;;;;;;5014180;28;20052;-66
2022/10/18 00:53:38;;;;;;;20.02;9.30;;;;;;;;;;5015272;28;20124;-66
2022/10/18 00:56:04;;;;;;;19.52;9.35;;;;;;;;;;5015427;28;20398;-66
2022/10/18 00:58:30;;;;;;;23.00;9.80;;;;;;;;;;5032612;28;20525;-66
2022/10/18 01:00:56;;;;;;;29.40;9.10;;;;;;;;;;5014917;28;20045;-66
2022/10/18 01:03:23;;;;;;;21.88;9.30;;;;;;;;;;5032954;28;20049;-66
2022/10/18 01:05:49;;;;;;;18.85;9.07;;;;;;;;;;5014722;28;20128;-66
2022/10/18 01:08:27;;;;;;;13.68;8.30;;;;;;;;;;5015016;28;20045;-66
2022/10/18 01:11:12;;;;;;;19.95;7.75;;;;;;;;;;5014773;28;20049;-65
2022/10/18 01:13:41;;;;;;;55.88;7.70;;;;;;;;;;5032838;28;20053;-66
2022/10/18 01:16:24;;;;;;;46.47;7.28;;;;;;;;;;5014984;28;20392;-66
2022/10/18 01:19:00;;;;;;;16.02;7.47;;;;;;;;;;5015382;28;20466;-65
2022/10/18 01:21:44;;;;;;;48.20;7.85;;;;;;;;;;5002206;28;20120;-65
2022/10/18 01:24:47;;;;;;;28.92;7.32;;;12.90;99.90;;;;;;4998255;28;20053;-65
2022/10/18 01:27:32;;;;;;;41.33;6.93;;;;;;;;;;5014592;28;20046;-65
2022/10/18 01:30:19;;;;;;;14.95;6.57;;;13.00;99.90;;;;;;5032603;28;20041;-65
2022/10/18 01:32:47;;;;;;;36.95;6.90;;;;;;;;;;5032615;28;20037;-65
2022/10/18 01:35:16;;;;;;;67.57;6.88;;;;;;;;;;5032650;28;20432;-66
2022/10/18 01:37:44;;;;;;;13.35;7.30;;;;;;;;;;5032404;28;20041;-66
2022/10/18 01:40:12;;;;;;;22.98;6.40;;;;;;;;;;5033271;28;20041;-65
2022/10/18 01:42:38;;;;;;;9.13;6.50;;;;;;;;;;5036181;28;20041;-65
2022/10/18 01:45:04;;;;;;;22.23;6.38;;;;;;;;;;5036319;28;20045;-66
2022/10/18 01:47:30;;;;;;;13.23;6.80;;;;;;;;;;5036052;28;20126;-65
2022/10/18 01:50:04;;;;;;;25.67;6.82;;;;;;;;;;5036009;28;20049;-65
2022/10/18 01:52:30;;;;;;;18.60;7.10;;;;;;;;;;5017954;28;20042;-65
2022/10/18 01:54:57;;;;;;;11.02;6.22;;;;;;;;;;5001871;28;20128;-65
2022/10/18 01:57:37;;;;;;;13.40;6.57;;;;;;;;;;5035922;28;20104;-65
2022/10/18 02:00:03;;;;;;;20.35;6.20;;;;;;;;;;5001810;28;20044;-65
2022/10/18 02:02:35;;;;;;;11.70;6.07;;;;;;;;;;5035535;28;20041;-65
2022/10/18 02:05:20;;;;;;;25.50;6.68;;;;;;;;;;5018344;28;20045;-65
2022/10/18 02:07:46;;;;;;;7.15;5.97;;;;;;;;;;5017924;28;20049;-65
2022/10/18 02:10:18;;;;;;;24.42;7.13;;;;;;;;;;5035323;28;20037;-65
2022/10/18 02:12:45;;;;;;;10.02;6.10;;;;;;;;;;5035449;28;20037;-65
2022/10/18 02:15:13;;;;;;;33.03;6.00;;;;;;;;;;5018237;28;20048;-66
2022/10/18 02:17:40;;;;;;;15.27;6.20;;;;;;;;;;5035694;28;20111;-65
2022/10/18 02:20:07;;;;;;;11.80;6.25;;;;;;;;;;5035364;28;20033;-65
2022/10/18 02:22:35;;;;;;;23.25;5.93;;;;;;;;;;5035365;28;20044;-66
2022/10/18 02:25:03;;;;;;;16.48;6.05;;;;;;;;;;5018147;28;20053;-65
2022/10/18 02:27:29;;;;;;;31.45;6.47;;;;;;;;;;5017608;28;20116;-65
2022/10/18 02:29:55;;;;;;;12.10;5.30;;;;;;;;;;5035352;28;20033;-65
2022/10/18 02:32:26;;;;;;;22.02;5.93;;;;;;;;;;5034892;28;20042;-65
2022/10/18 02:34:56;;;;;;;14.45;5.63;;;;;;;;;;5017665;28;20042;-66
2022/10/18 02:37:23;;;;;;;7.97;5.85;;;;;;;;;;5035337;28;20033;-65
2022/10/18 02:39:50;;;;;;;10.00;5.20;;;;;;;;;;5017510;28;20630;-65
2022/10/18 02:42:16;;;;;;;6.82;5.25;;;;;;;;;;5017335;28;20489;-65
2022/10/18 02:44:42;;;;;;;7.07;5.47;;;;;;;;;;5034906;28;20486;-65
2022/10/18 02:47:09;;;;;;;9.85;5.90;;;;;;;;;;5034944;28;20030;-65
2022/10/18 02:49:35;;;;;;;8.43;5.38;;;;;;;;;;5035100;28;20034;-65
2022/10/18 02:52:02;;;;;;;9.50;5.80;;;;;;;;;;5034449;28;20100;-65
2022/10/18 02:54:28;;;;;;;7.65;5.63;;;;;;;;;;5017748;28;20045;-65
2022/10/18 02:56:54;;;;;;;8.77;6.03;;;;;;;;;;5016882;28;20175;-65
2022/10/18 02:59:20;;;;;;;8.85;5.93;;;;;;;;;;5016943;28;20053;-66
2022/10/18 03:01:46;;;;;;;10.63;5.68;;;;;;;;;;5017247;28;20098;-65
2022/10/18 03:04:12;;;;;;;13.85;5.80;;;;;;;;;;5034008;28;20042;-65
2022/10/18 03:06:38;;;;;;;11.63;5.65;;;;;;;;;;5016842;28;20033;-65
2022/10/18 03:09:05;;;;;;;7.85;5.97;;;;;;;;;;5034609;28;20091;-65
2022/10/18 03:11:31;;;;;;;7.90;5.40;;;;;;;;;;5016955;28;20428;-65
2022/10/18 03:13:57;;;;;;;9.88;6.10;;;;;;;;;;5034279;28;20393;-66
2022/10/18 03:16:23;;;;;;;10.15;5.70;;;;;;;;;;5016844;28;20038;-65
2022/10/18 03:18:49;;;;;;;9.90;6.10;;;;;;;;;;5034023;28;20120;-65
2022/10/18 03:21:15;;;;;;;9.50;5.57;;;;;;;;;;5000923;28;20051;-65
2022/10/18 03:23:42;;;;;;;9.18;5.90;;;;;;;;;;5016207;28;20057;-65
2022/10/18 03:26:08;;;;;;;8.23;5.60;;;;;;;;;;5034611;28;20120;-65
2022/10/18 03:28:34;;;;;;;11.57;5.65;;;;;;;;;;5016393;28;20045;-65
2022/10/18 03:31:01;;;;;;;9.30;6.05;;;;;;;;;;4996961;28;20049;-65
2022/10/18 03:33:27;;;;;;;7.78;4.90;;;;;;;;;;5011709;28;20041;-65
2022/10/18 03:35:53;;;;;;;9.18;5.32;;;;;;;;;;5016563;28;20045;-65
2022/10/18 03:38:19;;;;;;;10.30;5.80;;;;;;;;;;5034346;28;20025;-65
2022/10/18 03:40:46;;;;;;;10.80;5.90;;;;;;;;;;4999961;28;20094;-65
2022/10/18 03:43:12;;;;;;;11.30;5.43;;;;;;;;;;5033710;28;20044;-65
2022/10/18 03:45:38;;;;;;;7.05;5.35;;;;;;;;;;5016393;28;20150;-65
2022/10/18 03:48:04;;;;;;;10.00;4.70;;;;;;;;;;5016421;28;20474;-65
2022/10/18 03:50:30;;;;;;;11.07;4.80;;;;;;;;;;5034086;28;20029;-65
2022/10/18 03:52:56;;;;;;;10.57;4.68;;;;;;;;;;5033979;28;20048;-65
2022/10/18 03:55:22;;;;;;;8.02;5.47;;;;;;;;;;4997058;28;20037;-65
2022/10/18 03:57:48;;;;;;;12.85;5.38;;;;;;;;;;5013969;28;20474;-66
2022/10/18 04:00:14;;;;;;;9.85;4.82;;;;;;;;;;5014782;28;20138;-66
2022/10/18 04:02:41;;;;;;;8.88;4.85;;;;;;;;;;5015559;28;20033;-65
2022/10/18 04:05:07;;;;;;;11.15;4.53;;;;;;;;;;5033516;28;20459;-65
2022/10/18 04:07:34;;;;;;;8.32;4.88;;;;;;;;;;5015797;28;20045;-65
2022/10/18 04:10:00;;;;;;;8.63;4.57;;;;;;;;;;5033310;28;20038;-65
2022/10/18 04:12:26;;;;;;;10.63;4.35;;;;;;;;;;5033415;28;20041;-65
2022/10/18 04:14:52;;;;;;;6.47;4.28;;;;;;;;;;4999378;28;20060;-65
2022/10/18 04:17:18;;;;;;;6.65;3.90;;;;;;;;;;5015922;28;20049;-65
2022/10/18 04:19:44;;;;;;;5.05;4.05;;;;;;;;;;5015650;28;20090;-65
2022/10/18 04:22:11;;;;;;;6.03;4.10;;;;;;;;;;5015613;28;20378;-65
2022/10/18 04:24:37;;;;;;;7.07;4.38;;;;;;;;;;5032810;28;20069;-65
2022/10/18 04:27:04;;;;;;;5.07;3.85;;;;;;;;;;5015667;28;20060;-65
2022/10/18 04:29:30;;;;;;;5.50;3.70;;;;;;;;;;5033029;28;20458;-65
2022/10/18 04:31:56;;;;;;;5.55;3.30;;;;;;;;;;4998917;28;21740;-65
2022/10/18 04:34:22;;;;;;;5.05;3.65;;;;;;;;;;5015423;28;20482;-65
2022/10/18 04:36:48;;;;;;;7.35;3.60;;;;;;;;;;5015244;28;20037;-65
2022/10/18 04:39:14;;;;;;;6.78;3.80;;;;;;;;;;5032674;28;20466;-65
2022/10/18 04:41:41;;;;;;;8.77;3.50;;;;;;;;;;5015191;28;20048;-65
2022/10/18 04:44:07;;;;;;;3.80;3.22;;;;;;;;;;5033071;28;20081;-65
2022/10/18 04:46:33;;;;;;;5.95;3.33;;;;;;;;;;5033012;28;20091;-65
2022/10/18 04:49:02;;;;;;;4.32;3.58;;;;;;;;;;5015150;28;20125;-65
2022/10/18 04:51:28;;;;;;;6.68;3.60;;;;;;;;;;5032914;28;20045;-65
2022/10/18 04:53:54;;;;;;;4.60;3.70;;;;;;;;;;5015170;28;20115;-65
2022/10/18 04:56:21;;;;;;;6.57;3.30;;;;;;;;;;5032907;28;20037;-65
2022/10/18 04:58:47;;;;;;;6.15;3.78;;;;;;;;;;5015237;28;20037;-64
2022/10/18 05:01:13;;;;;;;10.55;4.40;;;;;;;;;;5015101;28;20054;-65
2022/10/18 05:03:39;;;;;;;5.53;3.88;;;;;;;;;;4998610;28;20554;-65
2022/10/18 05:06:05;;;;;;;7.85;3.75;;;;;;;;;;5032511;28;20041;-64
2022/10/18 05:08:32;;;;;;;9.40;3.97;;;;;;;;;;5032435;28;20041;-65
2022/10/18 05:10:58;;;;;;;7.63;4.10;;;;;;;;;;5014429;28;20041;-64
2022/10/18 05:13:25;;;;;;;7.70;4.00;;;;;;;;;;5015355;28;20076;-65
2022/10/18 05:15:51;;;;;;;6.45;4.30;;;;;;;;;;5036056;28;20091;-65
2022/10/18 05:18:17;;;;;;;6.68;3.92;;;;;;;;;;5002920;28;20041;-65
2022/10/18 05:20:43;;;;;;;5.25;3.80;;;;;;;;;;5035795;28;20042;-65
2022/10/18 05:23:09;;;;;;;6.90;4.25;;;;;;;;;;5036699;28;20061;-65
2022/10/18 05:25:39;;;;;;;8.55;5.13;;;;;;;;;;5036295;28;20053;-65
2022/10/18 05:28:05;;;;;;;10.90;4.88;;;;;;;;;;5002530;28;20046;-65
2022/10/18 05:30:31;;;;;;;9.38;4.22;;;;;;;;;;5036409;28;20033;-65
2022/10/18 05:32:57;;;;;;;11.20;4.65;;;;;;;;;;5036646;28;20042;-65
2022/10/18 05:35:23;;;;;;;8.38;4.28;;;;;;;;;;5018352;28;20129;-69
2022/10/18 05:37:49;;;;;;;11.48;4.28;;;;;;;;;;4986332;28;20037;-69
2022/10/18 05:40:15;;;;;;;6.03;3.90;;;;;;;;;;5036431;28;20041;-69
2022/10/18 05:42:41;;;;;;;6.05;3.88;;;;;;;;;;5036350;28;20041;-69
2022/10/18 05:45:08;;;;;;;8.90;3.97;;;;;;;;;;5011055;28;20120;-69
2022/10/18 05:47:34;;;;;;;9.35;3.85;;;;;;;;;;5001980;28;20046;-69
2022/10/18 05:50:00;;;;;;;9.43;3.58;;;;;;;;;;5035804;28;20045;-69
2022/10/18 05:52:26;;;;;;;10.75;3.95;;;;;;;;;;5018561;28;20045;-69
2022/10/18 05:54:52;;;;;;;16.73;4.28;;;;;;;;;;5018154;28;20046;-69
2022/10/18 05:57:18;;;;;;;7.35;4.03;;;;;;;;;;5018121;28;20048;-69
2022/10/18 05:59:44;;;;;;;7.63;3.90;;;;;;;;;;5035958;28;20041;-69
2022/10/18 06:02:11;;;;;;;9.13;3.75;;;;;;;;;;5034423;28;20056;-69
2022/10/18 06:04:37;;;;;;;11.30;4.30;;;;;;;;;;5018333;28;20136;-69
2022/10/18 06:07:07;;;;;;;10.05;4.20;;;;;;;;;;5035619;28;20037;-70
2022/10/18 06:09:33;;;;;;;10.20;4.47;;;;;;;;;;5035379;28;20129;-69
2022/10/18 06:11:59;;;;;;;10.30;4.00;;;;;;;;;;5018048;28;20048;-69
2022/10/18 06:14:25;;;;;;;10.93;4.30;;;;;;;;;;5018032;28;20034;-69
2022/10/18 06:16:51;;;;;;;9.95;4.03;;;;;;;;;;5018083;28;20091;-69
2022/10/18 06:19:17;;;;;;;16.20;4.40;;;;;;;;;;5036009;28;20033;-69
2022/10/18 06:21:43;;;;;;;9.05;4.38;;;;;;;;;;5017719;28;20073;-69
2022/10/18 06:24:09;;;;;;;11.25;3.90;;;;;;;;;;5017543;28;20061;-69
2022/10/18 06:26:36;;;;;;;9.85;3.92;;;;;;;;;;5034148;28;20108;-69
2022/10/18 06:29:02;;;;;;;8.32;3.72;;;;;;;;;;5017148;28;20049;-69
2022/10/18 06:31:28;;;;;;;9.07;3.58;;;;;;;;;;5035063;28;20122;-69
2022/10/18 06:33:56;;;;;;;11.63;4.05;;;;;;;;;;5018653;28;20042;-69
2022/10/18 06:36:22;;;;;;;8.70;3.92;;;;;;;;;;5001180;28;20041;-69
2022/10/18 06:38:49;;;;;;;24.10;5.90;;;;;;;;;;5017621;28;20501;-69
2022/10/18 06:41:16;;;;;;;13.60;4.93;;;;;;;;;;5017431;28;20049;-69
2022/10/18 06:43:43;;;;;;;11.40;4.75;;;;;;;;;;5035229;28;20048;-69
2022/10/18 06:46:09;;;;;;;13.43;4.03;;;;;;;;;;5017428;28;20055;-69
2022/10/18 06:48:36;;;;;;;9.60;3.83;;;;;;;;;;5035211;28;20038;-69
2022/10/18 06:51:03;;;;;;;8.23;3.70;;;;;;;;;;5034323;28;20448;-69
2022/10/18 06:53:31;;;;;;;14.32;4.15;;;;;;;;;;5035472;28;20120;-69
2022/10/18 06:56:01;;;;;;;10.77;3.35;;;;;;;;;;5017080;28;20057;-69
2022/10/18 06:58:28;;;;;;;10.75;3.88;;;;;;;;;;5035044;28;20044;-69
2022/10/18 07:00:54;;;;;;;10.55;3.80;;;;;;;;;;5034765;28;20145;-70
2022/10/18 07:03:20;;;;;;;15.23;3.58;;;;;;;;;;5017194;28;20045;-69
2022/10/18 07:05:47;;;;;;;9.75;3.70;;;;;;;;;;5034497;28;20056;-69
2022/10/18 07:08:13;;;;;;;7.38;3.70;;;;;;;;;;5016981;28;20034;-70
2022/10/18 07:10:39;;;;;;;16.02;3.78;;;;;;;;;;5016822;28;20030;-69
2022/10/18 07:13:06;;;;;;;13.30;4.43;;;;;;;;;;5034399;28;20064;-69
2022/10/18 07:15:32;;;;;;;9.50;3.38;;;;;;;;;;5016753;28;20410;-69
2022/10/18 07:17:58;;;;;;;13.13;3.90;;;;;;;;;;5033927;28;20041;-70
2022/10/18 07:20:25;;;;;;;12.15;3.72;;;;;;;;;;5016930;28;20049;-69
2022/10/18 07:22:55;;;;;;;12.35;3.88;;;;;;;;;;5034324;28;20041;-69
2022/10/18 07:25:21;;;;;;;14.35;3.80;;;;;;;;;;5034527;28;20076;-69
2022/10/18 07:27:48;;;;;;;10.63;3.67;;;;;;;;;;5033967;28;20064;-69
2022/10/18 07:30:14;;;;;;;13.50;3.67;;;;;;;;;;5034210;28;20067;-69
2022/10/18 07:32:40;;;;;;;17.48;3.70;;;;;;;;;;5032798;28;20421;-69
2022/10/18 07:35:06;;;;;;;10.82;4.55;;;;;;;;;;5032558;28;20045;-69
2022/10/18 07:37:32;;;;;;;13.82;4.00;;;;;;;;;;5036025;28;20084;-69
2022/10/18 07:39:58;;;;;;;16.48;3.20;;;;;;;;;;5007007;28;20060;-70
2022/10/18 07:42:24;;;;;;;10.50;3.47;;;;;;;;;;5031806;28;20099;-69
2022/10/18 07:44:50;;;;;;;10.90;4.05;;;;;;;;;;5034183;28;20037;-69
2022/10/18 07:47:17;;;;;;;13.50;3.80;;;;;;;;;;5033870;28;20034;-69
2022/10/18 07:49:43;;;;;;;13.02;3.50;;;;;;;;;;5000009;28;20038;-69
2022/10/18 07:52:09;;;;;;;16.15;4.53;;;;;;;;;;5033967;28;20046;-69
2022/10/18 07:54:35;;;;;;;12.80;3.10;;;;;;;;;;5033321;28;20079;-69
2022/10/18 07:57:03;;;;;;;10.18;2.67;;;;;;;;;;5006393;28;20079;-69
2022/10/18 07:59:29;;;;;;;14.85;3.05;;;;;;;;;;5030407;28;20048;-69
2022/10/18 08:01:55;;;;;;;20.60;4.05;;;;;;;;;;5031805;28;20073;-69
2022/10/18 08:04:21;;;;;;;9.63;3.50;;;;;;;;;;5032879;28;20033;-69
2022/10/18 08:06:47;;;;;;;15.70;4.57;;;;;;;;;;5016370;28;20041;-69
2022/10/18 08:09:13;;;;;;;13.60;4.25;;;;;;;;;;5015707;28;20041;-70
2022/10/18 08:11:39;;;;;;;16.17;3.95;;;;;;;;;;5027506;28;20080;-69
2022/10/18 08:14:05;;;;;;;14.70;3.83;;;;;;;;;;5027707;28;20041;-69
2022/10/18 08:16:31;;;;;;;18.27;4.50;;;;;;;;;;5027620;28;20045;-69
2022/10/18 08:18:58;;;;;;;16.67;4.30;;;;;;;;;;5028939;28;20048;-69
2022/10/18 08:21:24;;;;;;;24.60;4.63;;;;;;;;;;5031531;28;20041;-69
2022/10/18 08:23:50;;;;;;;25.13;5.07;;;;;;;;;;5032396;28;20041;-69
2022/10/18 08:26:17;;;;;;;17.58;3.90;;;;;;;;;;5034329;28;20473;-70
2022/10/18 08:28:44;;;;;;;15.77;3.88;;;;;;;;;;5032942;28;20130;-69
2022/10/18 08:31:17;;;;;;;23.50;5.18;;;;;;;;;;5030046;28;20492;-69
2022/10/18 08:33:44;;;;;;;20.92;4.15;;;;;;;;;;5033019;28;20030;-69
2022/10/18 08:36:11;;;;;;;20.13;3.53;;;;;;;;;;5012214;28;20068;-69
2022/10/18 08:38:38;;;;;;;22.30;4.07;;;;;;;;;;5029905;28;20490;-69
2022/10/18 08:41:22;;;;;;;19.75;3.97;;;;;;;;;;5032931;28;20115;-70
2022/10/18 08:44:02;;;;;;;16.65;3.97;;;;;;;;;;5032558;28;20034;-69
2022/10/18 08:46:28;;;;;;;17.77;3.80;;;;;;;;;;5014846;28;20048;-69
2022/10/18 08:48:55;;;;;;;23.25;4.03;;;;;;;;;;5031269;28;20045;-69
2022/10/18 08:51:34;;;;;;;16.50;3.50;;;;;;;;;;5013182;28;20041;-69
2022/10/18 08:54:00;;;;;;;17.65;2.80;;;;;;;;;;5008223;28;20111;-74
2022/10/18 08:56:26;;;;;;;23.77;3.42;;;;;;;;;;5009946;28;20033;-75
2022/10/18 08:58:52;;;;;;;30.95;4.57;;;;;;;;;;5008408;28;20041;-75
2022/10/18 09:01:18;;;;;;;26.10;3.33;;;;;;;;;;5008999;28;20045;-70
2022/10/18 09:03:50;;;;;;;17.48;2.75;;;;;;;;;;5028256;28;20060;-70
2022/10/18 09:06:37;;;;;;;17.05;3.22;;;;;;;;;;5029881;28;20038;-69
2022/10/18 09:09:16;;;;;;;14.63;3.28;;;;;;;;;;5012881;28;20038;-69
2022/10/18 09:11:45;;;;;;;18.60;2.58;;;;;;;;;;4998435;28;20079;-70
2022/10/18 09:14:17;;;;;;;19.02;3.28;;;;;;;;;;5014234;28;20037;-70
2022/10/18 09:16:48;;;;;;;19.05;2.75;;;;;;;;;;5015056;28;20102;-69
2022/10/18 09:19:14;;;;;;;14.95;2.30;;;;;;;;;;5029946;28;20103;-70
2022/10/18 09:21:40;;;;;;;14.95;2.70;;;;;;;;;;5012455;28;20092;-69
2022/10/18 09:24:14;;;;;;;15.60;2.42;;;;;;;;;;5008320;28;20100;-69
2022/10/18 09:26:44;;;;;;;16.20;2.92;;;;;;;;;;5026362;28;20512;-69
2022/10/18 09:29:29;;;;;;;13.38;2.58;;;;;;;;;;5027745;28;20036;-70
2022/10/18 09:32:03;;;;;;;17.30;2.35;;;;;;;;;;5005256;28;20634;-70
2022/10/18 09:34:49;;;;;;;12.35;3.10;;;;;;;;;;5015161;28;20037;-69
2022/10/18 09:37:16;;;;;;;14.02;2.15;;;;;;;;;;5014598;28;20374;-69
2022/10/18 09:39:42;;;;;;;13.88;3.15;;;;;;;;;;5031969;28;20069;-69
2022/10/18 09:42:30;;;;;;;14.48;2.10;;;;;;;;;;5031402;28;20046;-69
2022/10/18 09:45:02;;;;;;;9.20;1.70;;;;;;;;;;5032816;28;20129;-69
2022/10/18 09:47:34;;;;;;;22.85;2.60;;;;;;;;;;4998283;28;20069;-69
2022/10/18 09:50:02;;;;;;;13.40;2.33;;;;;;;;;;5013835;28;20065;-69
2022/10/18 09:52:33;;;;;;;17.95;2.17;;;;;;;;;;5032544;28;20049;-69
2022/10/18 09:55:01;;;;;;;13.80;2.58;;;;;;;;;;5032749;28;20107;-70
2022/10/18 09:57:36;;;;;;;15.18;1.70;;;;;;;;;;5033001;28;20049;-69
2022/10/18 10:00:03;;;;;;;15.52;2.38;;;;;;;;;;5014983;28;20044;-69
2022/10/18 10:02:29;;;;;;;13.77;1.88;;;;;;;;;;5017674;28;20128;-69
2022/10/18 10:04:55;;;;;;;11.02;1.88;;;;;;;;;;5018433;28;20044;-69
2022/10/18 10:07:33;;;;;;;11.25;2.17;;;;;;;;;;5018441;28;20044;-69
2022/10/18 10:10:06;;;;;;;18.65;2.92;;;;;;;;;;5036181;28;20103;-70
2022/10/18 10:12:37;;;;;;;12.38;2.08;;;;;;;;;;5001998;28;20052;-70
2022/10/18 10:15:19;;;;;;;11.75;2.03;;;;;;;;;;5018339;28;20041;-69
2022/10/18 10:17:45;;;;;;;;;;;;;;;;;;5036131;28;20034;-69
2022/10/18 10:20:18;;;;;;;14.25;2.75;;;;;;;;;;5018148;28;19917;-69
2022/10/18 10:22:46;;;;;;;15.30;2.17;;;;;;;;;;5018024;28;20124;-69
2022/10/18 10:25:30;;;;;;;13.32;2.00;;;;;;;;;;5018260;28;20099;-69
2022/10/18 10:28:01;;;;;;;13.60;2.20;;;;;;;;;;5017952;28;20398;-69
2022/10/18 10:30:29;;;;;;;19.20;2.50;;;;;;;;;;5017978;28;20049;-69
2022/10/18 10:32:56;;;;;;;17.33;2.30;;;;;;;;;;5001481;28;20050;-69
2022/10/18 10:35:22;;;;;;;14.35;2.58;;;;;;;;;;5017913;28;20045;-69
2022/10/18 10:37:53;;;;;;;16.10;2.67;;;;;;;;;;5017976;28;20060;-72
2022/10/18 10:40:23;;;;;;;16.30;2.23;;;;;;;;;;5035364;28;20045;-69
2022/10/18 10:42:52;;;;;;;17.75;2.58;;;;;;;;;;5017403;28;20049;-70
2022/10/18 10:45:19;;;;;;;16.08;2.05;;;;;;;;;;5016479;28;20183;-69
2022/10/18 10:47:45;;;;;;;14.77;2.55;;;;;;;;;;5001391;28;20041;-69
2022/10/18 10:50:12;;;;;;;13.07;2.70;;;;;;;;;;5017714;28;20103;-70
2022/10/18 10:52:39;;;;;;;12.82;2.42;;;;;;;;;;5017425;28;20099;-70
2022/10/18 10:55:06;;;;;;;16.40;2.00;;;;;;;;;;5017375;28;20129;-70
2022/10/18 10:57:32;;;;;;;18.05;2.75;;;;;;;;;;5017400;28;20501;-70
2022/10/18 10:59:58;;;;;;;8.27;2.17;;;;;;;;;;5034933;28;20048;-70
2022/10/18 11:02:32;;;;;;;14.88;2.25;;;;;;;;;;5017282;28;20037;-70
2022/10/18 11:05:17;;;;;;;11.43;2.38;;;;;;;;;;5017004;28;20088;-70
2022/10/18 11:07:45;;;;;;;13.45;2.72;;;;;;;;;;5017129;28;20045;-66
2022/10/18 11:10:11;;;;;;;12.30;2.00;;;;;;;;;;5016976;28;20050;-66
2022/10/18 11:12:42;;;;;;;12.52;2.13;;;;;;;;;;5016828;28;20049;-66
2022/10/18 11:15:24;;;;;;;10.82;1.88;;;;;;;;;;5015086;28;20525;-66
2022/10/18 11:17:50;;;;;;;17.13;2.83;;;;;;;;;;5015240;28;20041;-65
2022/10/18 11:20:25;;;;;;;20.45;2.40;;;;;;;;;;4998958;28;20117;-66
2022/10/18 11:23:00;;;;;;;14.90;2.13;;;;;;;;;;5016806;28;20053;-66
2022/10/18 11:25:35;;;;;;;9.70;2.10;;;;;;;;;;5034553;28;20049;-66
2022/10/18 11:28:22;;;;;;;11.20;1.95;;;;;;;;;;5016777;28;20041;-66
2022/10/18 11:31:20;;;;;;;14.43;2.83;;;15.60;99.90;;;;;;5015961;28;20041;-66
2022/10/18 11:34:14;;;;;;;21.23;2.67;;;15.70;99.90;;;;;;4984376;28;20115;-66
2022/10/18 11:36:49;;;;;;;15.98;1.98;;;;;;;;;;5034657;28;20060;-66
2022/10/18 11:39:19;;;;;;;11.55;1.85;;;;;;;;;;5034677;28;20396;-66
2022/10/18 11:41:48;;;;;;;8.65;2.10;;;;;;;;;;5016835;28;20371;-66
2022/10/18 11:44:39;;;;;;;11.60;1.95;;;;;;;;;;5016609;28;20042;-66
2022/10/18 11:47:08;;;;;;;8.88;2.00;;;;;;;;;;4993103;28;20045;-66
2022/10/18 11:49:42;;;;;;;15.85;1.98;;;;;;;;;;5016496;28;20077;-66
2022/10/18 11:52:14;;;;;;;11.57;2.60;;;;;;;;;;5016522;28;20041;-66
2022/10/18 11:54:59;;;;;;;16.00;2.65;;;;;;;;;;5016555;28;20037;-66
2022/10/18 11:57:28;;;;;;;14.55;2.00;;;;;;;;;;5016675;28;20053;-66
2022/10/18 12:00:08;;;;;;;11.50;1.98;;;;;;;;;;5016554;28;20045;-66
2022/10/18 12:02:52;;;;;;;8.77;2.50;;;;;;;;;;5034120;28;20375;-66
2022/10/18 12:05:19;;;;;;;10.63;2.42;;;;;;;;;;5016059;28;20489;-66
2022/10/18 12:07:51;;;;;;;12.60;1.73;;;;;;;;;;4999858;28;20052;-66
2022/10/18 12:10:19;;;;;;;;;;;15.80;99.90;;;;;;5016567;28;20118;-66
2022/10/18 12:12:51;;;;;;;9.73;1.80;;;;;;;;;;4999895;28;19921;-66
2022/10/18 12:15:25;;;;;;;13.30;2.72;;;;;;;;;;5016145;28;20045;-66
2022/10/18 12:17:53;;;;;;;12.43;2.28;;;;;;;;;;5015943;28;20569;-66
2022/10/18 12:20:31;;;;;;;11.65;2.63;;;;;;;;;;4999407;28;20037;-66
2022/10/18 12:23:07;;;;;;;13.68;2.15;;;;;;;;;;5016023;28;20057;-66
2022/10/18 12:25:35;;;;;;;7.03;1.80;;;;;;;;;;4979546;28;20054;-66
2022/10/18 12:28:16;;;;;;;12.57;2.28;;;;;;;;;;5013805;28;20508;-66
2022/10/18 12:30:47;;;;;;;10.45;2.10;;;;;;;;;;5013656;28;20038;-66
2022/10/18 12:33:16;;;;;;;13.45;2.03;;;;;;;;;;5013626;28;20056;-66
2022/10/18 12:35:54;;;;;;;11.95;2.55;;;;;;;;;;5013689;28;20042;-66
2022/10/18 12:38:26;;;;;;;7.75;1.67;;;;;;;;;;4995094;28;20053;-66
2022/10/18 12:40:53;;;;;;;9.67;1.80;;;;;;;;;;4995856;28;20048;-69
2022/10/18 12:43:23;;;;;;;9.45;1.80;;;;;;;;;;4996060;28;20442;-70
2022/10/18 12:46:01;;;;;;;11.73;2.63;;;;;;;;;;4996036;28;20064;-70
2022/10/18 12:48:44;;;;;;;10.73;2.15;;;;;;;;;;4996116;28;20034;-70
2022/10/18 12:51:14;;;;;;;14.40;2.22;;;;;;;;;;4995894;28;20053;-69
2022/10/18 12:53:43;;;;;;;9.73;2.33;;;;;;;;;;4995847;28;20038;-69
2022/10/18 12:56:28;;;;;;;16.40;2.20;;;;;;;;;;4996006;28;20042;-69
2022/10/18 12:59:16;;;;;;;11.40;1.90;;;16.10;99.90;;;;;;4995375;28;20038;-69
2022/10/18 13:01:54;;;;;;;9.93;1.77;;;;;;;;;;5002302;28;20056;-70
2022/10/18 13:04:32;;;;;;;9.18;1.83;;;;;;;;;;5003583;28;20482;-70
2022/10/18 13:06:58;;;;;;;10.88;1.80;;;;;;;;;;5000556;28;20105;-70
2022/10/18 13:09:27;;;;;;;9.90;1.90;;;;;;;;;;5012121;28;20053;-69
2022/10/18 13:11:58;;;;;;;11.27;1.95;;;;;;;;;;5003296;28;20049;-69
2022/10/18 13:14:39;;;;;;;14.18;2.72;;;;;;;;;;5000150;28;20049;-70
2022/10/18 13:17:23;;;;;;;9.05;1.65;;;;;;;;;;5001192;28;20037;-70
2022/10/18 13:20:23;;;;;;;12.43;1.58;;;;;;;;;;5016842;28;20482;-71
2022/10/18 13:23:08;;;;;;;14.82;2.33;;;16.50;99.90;;;;;;4959027;28;20508;-70
2022/10/18 13:25:49;;;;;;;12.40;2.83;;;;;;;;;;4997807;28;20038;-72
2022/10/18 13:28:15;;;;;;;9.63;1.95;;;;;;;;;;5003472;28;20049;-71
2022/10/18 13:30:47;;;;;;;10.25;2.10;;;;;;;;;;5001219;28;20056;-70
2022/10/18 13:33:29;;;;;;;9.43;2.05;;;16.40;99.90;;;;;;5001235;28;20077;-71
2022/10/18 13:36:00;;;;;;;15.23;2.85;;;;;;;;;;4978184;28;20502;-71
2022/10/18 13:38:26;;;;;;;11.77;1.95;;;;;;;;;;4998890;28;20057;-71
2022/10/18 13:41:09;;;;;;;6.85;1.85;;;;;;;;;;5006553;28;20408;-71
2022/10/18 13:44:21;;;;;;;15.10;2.50;;;15.90;99.90;;;;;;5003521;28;20040;-71
2022/10/18 13:46:47;;;;;;;10.00;1.83;;;;;;;;;;5002851;28;20046;-71
2022/10/18 13:49:16;;;;;;;9.68;2.28;;;;;;;;;;5007359;28;20045;-70
2022/10/18 13:52:01;;;;;;;20.63;3.30;;;;;;;;;;5007880;28;20053;-70
2022/10/18 13:54:38;;;;;;;12.02;2.15;;;;;;;;;;5000913;28;20041;-70
2022/10/18 13:57:25;;;;;;;11.02;2.40;;;16.00;99.90;;;;;;5003390;28;20544;-70
2022/10/18 14:00:10;;;;;;;11.25;2.08;;;;;;;;;;5007600;28;20041;-70
2022/10/18 14:02:40;;;;;;;11.25;2.30;;;;;;;;;;4998919;28;20077;-71
2022/10/18 14:05:18;;;;;;;7.63;1.50;;;;;;;;;;5004465;28;20050;-67
2022/10/18 14:07:45;;;;;;;11.65;1.75;;;;;;;;;;5000089;28;20073;-67
2022/10/18 14:10:29;;;;;;;9.80;2.10;;;;;;;;;;4997555;28;20041;-67
2022/10/18 14:12:57;;;;;;;11.98;1.80;;;;;;;;;;5014412;28;20074;-68
2022/10/18 14:15:25;;;;;;;14.98;2.05;;;;;;;;;;5015150;28;20037;-67
2022/10/18 14:17:52;;;;;;;12.10;2.13;;;;;;;;;;4995167;28;20042;-67
2022/10/18 14:20:18;;;;;;;10.20;2.05;;;;;;;;;;5004599;28;20045;-67
2022/10/18 14:22:48;;;;;;;11.23;2.15;;;;;;;;;;5006484;28;20076;-69
2022/10/18 14:25:22;;;;;;;12.10;1.92;;;;;;;;;;5023100;28;20468;-70
2022/10/18 14:27:48;;;;;;;11.63;2.90;;;;;;;;;;5015862;28;20045;-70
2022/10/18 14:30:18;;;;;;;14.23;2.00;;;;;;;;;;5023651;28;20046;-70
2022/10/18 14:32:46;;;;;;;15.52;1.90;;;;;;;;;;5020642;28;20490;-70
2022/10/18 14:35:17;;;;;;;11.77;2.13;;;;;;;;;;5025856;28;20043;-70
2022/10/18 14:37:43;;;;;;;11.70;2.63;;;;;;;;;;5022392;28;20076;-70
2022/10/18 14:40:25;;;;;;;15.38;1.80;;;;;;;;;;5022509;28;20044;-70
2022/10/18 14:42:51;;;;;;;18.25;2.13;;;;;;;;;;5024257;28;20116;-70
2022/10/18 14:45:18;;;;;;;9.55;1.70;;;;;;;;;;5025356;28;20566;-69
2022/10/18 14:47:45;;;;;;;10.55;1.90;;;;;;;;;;5025258;28;20033;-70